createdAt,value
2019-04-30T00:01:07.507Z,9.37
2019-04-30T00:03:55.846Z,9.37
2019-04-30T00:06:27.427Z,9.27
2019-04-30T00:08:55.090Z,9.35
2019-04-30T00:11:25.974Z,9.35
2019-04-30T00:13:58.809Z,9.28
2019-04-30T00:16:30.983Z,9.18
2019-04-30T00:19:00.944Z,9.18
2019-04-30T00:21:30.387Z,9.21
2019-04-30T00:24:00.866Z,9.32
2019-04-30T00:26:32.023Z,9.38
2019-04-30T00:29:01.802Z,9.38
2019-04-30T00:31:31.854Z,9.33
2019-04-30T00:34:01.738Z,9.33
2019-04-30T00:36:34.130Z,9.22
2019-04-30T00:39:09.028Z,9.20
2019-04-30T00:41:35.351Z,9.17
2019-04-30T00:44:05.587Z,9.17
2019-04-30T00:46:36.420Z,9.22
2019-04-30T00:49:09.807Z,9.19
2019-04-30T00:51:37.586Z,9.19
2019-04-30T00:54:07.280Z,9.27
2019-04-30T00:56:37.028Z,9.27
2019-04-30T00:59:10.459Z,9.23
2019-04-30T01:02:08.400Z,9.20
2019-04-30T01:04:44.989Z,9.10
2019-04-30T01:07:15.645Z,9.08
2019-04-30T01:09:49.449Z,9.08
2019-04-30T01:12:27.532Z,9.16
2019-04-30T01:14:49.751Z,9.03
2019-04-30T01:17:19.511Z,9.03
2019-04-30T01:19:51.131Z,8.99
2019-04-30T01:22:27.883Z,9.05
2019-04-30T01:24:52.839Z,9.13
2019-04-30T01:27:22.532Z,9.17
2019-04-30T01:29:52.453Z,9.08
2019-04-30T01:32:22.550Z,9.08
2019-04-30T01:34:53.768Z,9.11
2019-04-30T01:37:28.348Z,9.08
2019-04-30T01:39:55.228Z,9.15
2019-04-30T01:42:25.536Z,8.99
2019-04-30T01:44:55.284Z,8.99
2019-04-30T01:47:27.639Z,9.19
2019-04-30T01:50:01.040Z,9.22
2019-04-30T01:52:49.223Z,8.99
2019-04-30T01:55:19.901Z,9.19
2019-04-30T01:58:00.783Z,9.11
2019-04-30T02:00:41.142Z,9.11
2019-04-30T02:03:11.198Z,9.20
2019-04-30T02:05:41.109Z,9.35
2019-04-30T02:08:10.856Z,9.29
2019-04-30T02:10:40.969Z,9.29
2019-04-30T02:13:10.770Z,9.47
2019-04-30T02:15:40.830Z,9.36
2019-04-30T02:18:10.892Z,9.31
2019-04-30T02:20:40.995Z,9.41
2019-04-30T02:23:11.138Z,9.41
2019-04-30T02:25:41.067Z,9.31
2019-04-30T02:28:11.048Z,9.29
2019-04-30T02:30:41.095Z,9.19
2019-04-30T02:33:11.046Z,9.31
2019-04-30T02:36:03.275Z,9.24
2019-04-30T02:38:32.583Z,9.24
2019-04-30T02:41:02.518Z,9.33
2019-04-30T02:43:33.213Z,9.35
2019-04-30T02:46:03.914Z,9.35
2019-04-30T02:48:33.894Z,9.30
2019-04-30T02:51:03.803Z,9.34
2019-04-30T02:54:05.115Z,9.29
2019-04-30T02:56:35.149Z,9.29
2019-04-30T02:59:05.267Z,9.37
2019-04-30T03:01:35.434Z,9.46
2019-04-30T03:04:05.331Z,9.36
2019-04-30T03:06:35.317Z,9.36
2019-04-30T03:09:06.717Z,9.31
2019-04-30T03:11:36.753Z,9.35
2019-04-30T03:14:06.811Z,9.45
2019-04-30T03:16:52.325Z,9.39
2019-04-30T03:19:29.520Z,9.36
2019-04-30T03:22:12.058Z,9.36
2019-04-30T03:24:42.782Z,9.44
2019-04-30T03:27:13.051Z,9.37
2019-04-30T03:29:43.003Z,9.37
2019-04-30T03:32:14.296Z,9.40
2019-04-30T03:34:44.307Z,9.33
2019-04-30T03:37:14.271Z,9.36
2019-04-30T03:39:44.369Z,9.27
2019-04-30T03:42:14.101Z,9.48
2019-04-30T03:44:44.603Z,9.44
2019-04-30T03:47:14.515Z,9.44
2019-04-30T03:49:44.315Z,9.47
2019-04-30T03:52:14.226Z,9.33
2019-04-30T03:54:44.141Z,9.38
2019-04-30T03:57:13.981Z,9.38
2019-04-30T03:59:44.063Z,9.41
2019-04-30T04:02:30.062Z,9.35
2019-04-30T04:05:12.300Z,9.35
2019-04-30T04:08:10.450Z,9.52
2019-04-30T04:10:53.541Z,9.31
2019-04-30T04:13:23.735Z,9.31
2019-04-30T04:15:54.704Z,9.44
2019-04-30T04:18:24.503Z,9.41
2019-04-30T04:21:07.691Z,9.41
2019-04-30T04:23:26.306Z,9.37
2019-04-30T04:25:56.193Z,9.37
2019-04-30T04:28:26.013Z,9.40
2019-04-30T04:30:55.864Z,9.41
2019-04-30T04:33:25.906Z,9.44
2019-04-30T04:35:56.208Z,9.42
2019-04-30T04:38:26.029Z,9.42
2019-04-30T04:40:55.861Z,9.56
2019-04-30T04:43:25.818Z,9.56
2019-04-30T04:45:55.773Z,9.60
2019-04-30T04:48:25.784Z,9.43
2019-04-30T04:50:55.818Z,9.49
2019-04-30T04:53:25.738Z,9.49
2019-04-30T04:55:55.775Z,9.57
2019-04-30T04:58:25.593Z,9.37
2019-04-30T05:00:55.679Z,9.49
2019-04-30T05:03:30.490Z,9.49
2019-04-30T05:06:02.662Z,9.48
2019-04-30T05:08:31.718Z,9.60
2019-04-30T05:11:03.117Z,9.46
2019-04-30T05:13:34.718Z,9.46
2019-04-30T05:16:09.229Z,9.57
2019-04-30T05:18:39.244Z,9.65
2019-04-30T05:21:08.985Z,9.79
2019-04-30T05:23:41.054Z,9.73
2019-04-30T05:26:11.074Z,9.82
2019-04-30T05:28:41.310Z,9.67
2019-04-30T05:31:11.508Z,9.67
2019-04-30T05:33:41.800Z,9.73
2019-04-30T05:36:11.513Z,9.73
2019-04-30T05:38:46.313Z,9.64
2019-04-30T05:41:17.009Z,9.74
2019-04-30T05:43:48.845Z,9.59
2019-04-30T05:46:19.587Z,9.63
2019-04-30T05:48:49.632Z,9.63
2019-04-30T05:51:21.292Z,9.56
2019-04-30T05:53:51.811Z,9.54
2019-04-30T05:56:23.416Z,9.54
2019-04-30T05:58:53.377Z,9.44
2019-04-30T06:01:24.327Z,9.40
2019-04-30T06:03:54.448Z,9.31
2019-04-30T06:06:24.350Z,9.31
2019-04-30T06:09:06.717Z,9.35
2019-04-30T06:12:08.859Z,9.05
2019-04-30T06:14:51.589Z,9.18
2019-04-30T06:17:20.622Z,9.18
2019-04-30T06:19:51.556Z,9.17
2019-04-30T06:22:21.777Z,9.14
2019-04-30T06:24:52.035Z,9.14
2019-04-30T06:27:21.796Z,9.00
2019-04-30T06:29:52.503Z,9.00
2019-04-30T06:32:22.405Z,9.07
2019-04-30T06:34:52.598Z,9.12
2019-04-30T06:37:22.886Z,8.97
2019-04-30T06:39:52.775Z,9.04
2019-04-30T06:42:29.236Z,9.04
2019-04-30T06:44:59.112Z,9.18
2019-04-30T06:47:33.058Z,9.17
2019-04-30T06:50:01.361Z,9.29
2019-04-30T06:52:31.528Z,9.19
2019-04-30T06:55:01.385Z,9.19
2019-04-30T06:57:32.114Z,9.63
2019-04-30T07:00:02.031Z,9.95
2019-04-30T07:02:32.183Z,10.12
2019-04-30T07:05:02.059Z,10.12
2019-04-30T07:07:39.041Z,10.15
2019-04-30T07:10:26.318Z,10.21
2019-04-30T07:13:11.588Z,10.45
2019-04-30T07:15:41.666Z,10.42
2019-04-30T07:18:11.853Z,10.42
2019-04-30T07:20:41.652Z,10.33
2019-04-30T07:23:12.068Z,10.33
2019-04-30T07:25:41.978Z,10.37
2019-04-30T07:28:11.944Z,10.47
2019-04-30T07:30:41.866Z,10.54
2019-04-30T07:33:11.527Z,10.63
2019-04-30T07:35:43.230Z,10.63
2019-04-30T07:38:13.083Z,10.80
2019-04-30T07:40:42.912Z,10.80
2019-04-30T07:43:13.700Z,10.72
2019-04-30T07:45:43.470Z,10.74
2019-04-30T07:48:13.112Z,10.88
2019-04-30T07:50:43.900Z,10.87
2019-04-30T07:53:14.399Z,11.05
2019-04-30T07:55:44.312Z,11.05
2019-04-30T07:58:14.199Z,11.05
2019-04-30T08:00:44.137Z,10.94
2019-04-30T08:03:36.410Z,10.67
2019-04-30T08:06:09.727Z,10.67
2019-04-30T08:08:40.963Z,11.29
2019-04-30T08:11:22.769Z,11.29
2019-04-30T08:13:42.644Z,11.22
2019-04-30T08:16:13.087Z,11.45
2019-04-30T08:18:43.435Z,11.45
2019-04-30T08:21:14.050Z,11.57
2019-04-30T08:23:44.062Z,11.57
2019-04-30T08:26:14.050Z,12.02
2019-04-30T08:28:43.981Z,11.98
2019-04-30T08:31:19.653Z,11.97
2019-04-30T08:33:50.061Z,12.25
2019-04-30T08:36:19.815Z,11.94
2019-04-30T08:38:49.688Z,12.14
2019-04-30T08:41:19.542Z,12.21
2019-04-30T08:43:49.786Z,12.21
2019-04-30T08:46:19.865Z,12.34
2019-04-30T08:48:51.776Z,12.15
2019-04-30T08:51:21.039Z,12.24
2019-04-30T08:53:50.929Z,12.24
2019-04-30T08:56:21.998Z,12.48
2019-04-30T08:58:54.798Z,12.45
2019-04-30T09:01:23.608Z,12.46
2019-04-30T09:03:54.145Z,12.48
2019-04-30T09:06:28.719Z,12.48
2019-04-30T09:09:01.133Z,12.43
2019-04-30T09:11:42.909Z,12.22
2019-04-30T09:14:03.582Z,12.21
2019-04-30T09:16:40.919Z,12.21
2019-04-30T09:19:16.337Z,12.56
2019-04-30T09:21:48.747Z,12.58
2019-04-30T09:24:19.213Z,12.69
2019-04-30T09:26:49.622Z,12.69
2019-04-30T09:29:20.177Z,13.07
2019-04-30T09:31:51.180Z,13.06
2019-04-30T09:34:21.301Z,13.07
2019-04-30T09:36:51.559Z,13.07
2019-04-30T09:39:23.123Z,13.24
2019-04-30T09:41:53.356Z,12.98
2019-04-30T09:44:23.089Z,13.12
2019-04-30T09:46:52.935Z,13.12
2019-04-30T09:49:23.036Z,13.52
2019-04-30T09:51:52.777Z,13.44
2019-04-30T09:54:23.222Z,13.33
2019-04-30T09:56:53.547Z,13.62
2019-04-30T09:59:23.469Z,13.62
2019-04-30T10:01:53.125Z,13.74
2019-04-30T10:04:25.566Z,13.74
2019-04-30T10:06:55.797Z,13.94
2019-04-30T10:09:25.603Z,14.13
2019-04-30T10:12:02.253Z,13.98
2019-04-30T10:14:32.453Z,14.38
2019-04-30T10:17:14.276Z,14.38
2019-04-30T10:19:44.119Z,14.55
2019-04-30T10:22:14.782Z,14.24
2019-04-30T10:24:44.671Z,14.07
2019-04-30T10:27:14.378Z,14.14
2019-04-30T10:29:44.114Z,14.08
2019-04-30T10:32:14.156Z,14.08
2019-04-30T10:34:43.779Z,13.88
2019-04-30T10:37:14.618Z,13.88
2019-04-30T10:39:48.794Z,14.07
2019-04-30T10:42:17.791Z,14.07
2019-04-30T10:44:47.766Z,14.80
2019-04-30T10:47:19.181Z,14.80
2019-04-30T10:49:50.100Z,14.54
2019-04-30T10:52:19.775Z,14.77
2019-04-30T10:54:49.707Z,14.57
2019-04-30T10:57:19.464Z,14.67
2019-04-30T10:59:49.201Z,14.67
2019-04-30T11:02:19.243Z,15.07
2019-04-30T11:04:52.061Z,14.92
2019-04-30T11:07:22.034Z,14.92
2019-04-30T11:09:51.844Z,14.85
2019-04-30T11:12:21.739Z,15.05
2019-04-30T11:14:51.549Z,14.83
2019-04-30T11:17:21.761Z,14.80
2019-04-30T11:19:52.323Z,15.29
2019-04-30T11:22:22.300Z,15.29
2019-04-30T11:24:59.022Z,15.29
2019-04-30T11:27:23.926Z,15.29
2019-04-30T11:30:00.635Z,15.42
2019-04-30T11:32:28.224Z,15.53
2019-04-30T11:34:58.105Z,15.34
2019-04-30T11:37:28.148Z,15.34
2019-04-30T11:39:57.724Z,15.58
2019-04-30T11:42:27.534Z,15.58
2019-04-30T11:44:58.681Z,15.58
2019-04-30T11:47:53.617Z,15.95
2019-04-30T11:50:19.618Z,15.86
2019-04-30T11:52:49.335Z,15.86
2019-04-30T11:55:19.594Z,15.50
2019-04-30T11:57:49.563Z,16.01
2019-04-30T12:00:29.679Z,16.01
2019-04-30T12:02:59.490Z,16.29
2019-04-30T12:05:29.246Z,16.37
2019-04-30T12:08:26.637Z,16.31
2019-04-30T12:11:18.477Z,16.17
2019-04-30T12:13:48.873Z,16.17
2019-04-30T12:16:18.656Z,16.59
2019-04-30T12:18:49.820Z,16.59
2019-04-30T12:21:19.651Z,16.54
2019-04-30T12:23:49.487Z,16.67
2019-04-30T12:26:19.450Z,16.37
2019-04-30T12:28:49.135Z,16.37
2019-04-30T12:31:19.330Z,16.52
2019-04-30T12:33:52.740Z,17.00
2019-04-30T12:36:22.851Z,17.00
2019-04-30T12:38:53.159Z,17.07
2019-04-30T12:41:23.251Z,17.02
2019-04-30T12:43:53.104Z,17.02
2019-04-30T12:46:23.215Z,17.12
2019-04-30T12:49:11.767Z,16.44
2019-04-30T12:51:52.131Z,16.44
2019-04-30T12:54:41.127Z,16.19
2019-04-30T12:57:29.686Z,16.62
2019-04-30T13:00:00.504Z,16.62
2019-04-30T13:02:33.385Z,16.68
2019-04-30T13:05:03.313Z,16.68
2019-04-30T13:07:33.749Z,16.93
2019-04-30T13:10:07.977Z,17.06
2019-04-30T13:12:39.094Z,17.06
2019-04-30T13:15:10.269Z,17.15
2019-04-30T13:17:39.904Z,17.15
2019-04-30T13:20:18.574Z,16.70
2019-04-30T13:22:44.178Z,17.17
2019-04-30T13:25:13.132Z,17.17
2019-04-30T13:27:46.610Z,17.42
2019-04-30T13:30:27.016Z,17.07
2019-04-30T13:33:24.465Z,17.12
2019-04-30T13:35:54.311Z,17.18
2019-04-30T13:38:32.119Z,17.18
2019-04-30T13:41:18.735Z,17.34
2019-04-30T13:44:03.792Z,17.77
2019-04-30T13:46:34.040Z,17.77
2019-04-30T13:49:04.559Z,17.74
2019-04-30T13:51:34.441Z,17.74
2019-04-30T13:54:06.961Z,17.49
2019-04-30T13:56:39.734Z,17.90
2019-04-30T13:59:10.428Z,17.90
2019-04-30T14:01:40.962Z,17.70
2019-04-30T14:04:26.130Z,17.70
2019-04-30T14:07:22.355Z,17.82
2019-04-30T14:09:52.544Z,17.94
2019-04-30T14:12:22.243Z,17.94
2019-04-30T14:14:52.275Z,18.24
2019-04-30T14:17:22.343Z,18.22
2019-04-30T14:19:52.033Z,18.25
2019-04-30T14:22:22.004Z,18.25
2019-04-30T14:27:21.736Z,18.66
2019-04-30T14:29:52.141Z,18.66
2019-04-30T14:32:22.041Z,18.01
2019-04-30T14:34:51.595Z,17.94
2019-04-30T14:37:23.720Z,18.02
2019-04-30T14:39:54.532Z,18.02
2019-04-30T14:42:25.603Z,18.12
2019-04-30T14:45:05.976Z,18.12
2019-04-30T14:47:46.443Z,18.59
2019-04-30T14:50:19.784Z,18.59
2019-04-30T14:52:59.648Z,18.18
2019-04-30T14:55:52.829Z,18.27
2019-04-30T14:58:47.092Z,18.27
2019-04-30T15:01:34.778Z,18.67
2019-04-30T15:04:04.663Z,18.67
2019-04-30T15:06:34.352Z,18.88
2019-04-30T15:09:04.728Z,18.61
2019-04-30T15:11:34.362Z,18.61
2019-04-30T15:14:04.688Z,19.13
2019-04-30T15:16:34.389Z,18.92
2019-04-30T15:21:27.205Z,20.02
2019-04-30T15:24:14.913Z,19.67
2019-04-30T15:26:44.567Z,19.67
2019-04-30T15:29:16.136Z,19.97
2019-04-30T15:31:46.058Z,20.24
2019-04-30T15:34:16.116Z,20.24
2019-04-30T15:36:46.145Z,19.85
2019-04-30T15:39:21.683Z,20.15
2019-04-30T15:41:52.139Z,19.44
2019-04-30T15:44:22.042Z,19.92
2019-04-30T15:46:53.328Z,19.92
2019-04-30T15:49:27.602Z,19.90
2019-04-30T15:52:00.083Z,20.09
2019-04-30T15:54:29.905Z,20.43
2019-04-30T15:57:03.287Z,20.43
2019-04-30T15:59:44.068Z,20.45
2019-04-30T16:02:22.357Z,20.45
2019-04-30T16:05:11.225Z,20.36
2019-04-30T16:08:02.817Z,20.45
2019-04-30T16:10:58.538Z,19.62
2019-04-30T16:13:34.004Z,19.62
2019-04-30T16:16:03.887Z,20.26
2019-04-30T16:18:44.060Z,20.49
2019-04-30T16:21:13.768Z,20.49
2019-04-30T16:23:44.089Z,20.53
2019-04-30T16:26:14.365Z,19.72
2019-04-30T16:28:45.925Z,19.72
2019-04-30T16:31:16.105Z,19.96
2019-04-30T16:33:46.074Z,19.73
2019-04-30T16:36:16.017Z,18.87
2019-04-30T16:38:46.041Z,18.87
2019-04-30T16:41:28.485Z,18.56
2019-04-30T16:43:48.836Z,18.90
2019-04-30T16:46:19.332Z,18.90
2019-04-30T16:48:49.406Z,18.45
2019-04-30T16:51:19.351Z,18.27
2019-04-30T16:53:49.420Z,18.27
2019-04-30T16:56:19.251Z,18.23
2019-04-30T16:59:02.607Z,18.30
2019-04-30T17:01:33.572Z,18.07
2019-04-30T17:04:23.073Z,17.88
2019-04-30T17:07:16.567Z,17.88
2019-04-30T17:10:22.042Z,17.51
2019-04-30T17:13:18.906Z,17.51
2019-04-30T17:15:52.076Z,17.16
2019-04-30T17:18:22.820Z,17.16
2019-04-30T17:20:53.004Z,17.23
2019-04-30T17:23:22.805Z,17.23
2019-04-30T17:25:53.166Z,17.16
2019-04-30T17:28:23.323Z,17.04
2019-04-30T17:30:53.126Z,17.00
2019-04-30T17:33:23.050Z,17.07
2019-04-30T17:35:53.364Z,16.88
2019-04-30T17:38:23.095Z,16.88
2019-04-30T17:40:53.330Z,16.89
2019-04-30T17:43:24.484Z,16.76
2019-04-30T17:45:58.888Z,16.58
2019-04-30T17:48:33.263Z,16.46
2019-04-30T17:51:03.361Z,16.58
2019-04-30T17:53:34.690Z,16.44
2019-04-30T17:56:04.729Z,16.24
2019-04-30T17:58:35.715Z,16.03
2019-04-30T18:01:12.148Z,16.06
2019-04-30T18:03:42.132Z,15.83
2019-04-30T18:06:12.086Z,15.83
2019-04-30T18:08:41.963Z,15.61
2019-04-30T18:11:12.338Z,15.61
2019-04-30T18:13:42.408Z,15.50
2019-04-30T18:16:12.237Z,15.55
2019-04-30T18:18:51.055Z,15.45
2019-04-30T18:21:27.104Z,15.23
2019-04-30T18:24:16.845Z,15.26
2019-04-30T18:26:51.117Z,15.26
2019-04-30T18:29:21.445Z,14.95
2019-04-30T18:31:51.673Z,14.91
2019-04-30T18:34:21.701Z,14.91
2019-04-30T18:36:52.457Z,14.65
2019-04-30T18:39:22.937Z,14.57
2019-04-30T18:41:54.499Z,14.29
2019-04-30T18:44:26.161Z,14.29
2019-04-30T18:46:56.432Z,14.26
2019-04-30T18:49:28.699Z,14.22
2019-04-30T18:51:59.866Z,14.03
2019-04-30T18:54:31.391Z,13.78
2019-04-30T18:57:01.480Z,13.78
2019-04-30T18:59:32.724Z,13.87
2019-04-30T19:02:05.117Z,13.73
2019-04-30T19:04:38.942Z,13.73
2019-04-30T19:07:29.686Z,13.39
2019-04-30T19:10:16.714Z,13.27
2019-04-30T19:12:55.996Z,13.27
2019-04-30T19:16:14.958Z,13.22
2019-04-30T19:18:31.793Z,13.23
2019-04-30T19:21:01.756Z,13.14
2019-04-30T19:23:34.698Z,13.01
2019-04-30T19:26:05.859Z,12.85
2019-04-30T19:28:36.060Z,12.80
2019-04-30T19:31:11.705Z,12.77
2019-04-30T19:33:41.107Z,12.77
2019-04-30T19:36:12.657Z,12.47
2019-04-30T19:38:43.153Z,12.49
2019-04-30T19:41:13.257Z,12.49
2019-04-30T19:43:43.333Z,12.35
2019-04-30T19:46:13.347Z,12.35
2019-04-30T19:48:43.684Z,12.27
2019-04-30T19:51:14.461Z,12.32
2019-04-30T19:53:44.191Z,12.19
2019-04-30T19:56:15.147Z,12.19
2019-04-30T19:58:59.133Z,12.31
2019-04-30T20:01:20.754Z,12.25
2019-04-30T20:03:51.695Z,12.20
2019-04-30T20:06:22.112Z,12.20
2019-04-30T20:08:54.664Z,11.93
2019-04-30T20:11:24.398Z,11.93
2019-04-30T20:13:54.411Z,11.90
2019-04-30T20:16:24.382Z,11.93
2019-04-30T20:18:55.904Z,11.85
2019-04-30T20:21:31.865Z,11.85
2019-04-30T20:23:58.078Z,11.89
2019-04-30T20:26:27.808Z,11.82
2019-04-30T20:28:58.967Z,11.80
2019-04-30T20:31:29.531Z,11.80
2019-04-30T20:34:01.465Z,11.71
2019-04-30T20:36:31.418Z,11.45
2019-04-30T20:39:25.739Z,11.40
2019-04-30T20:41:56.271Z,11.44
2019-04-30T20:44:26.393Z,11.27
2019-04-30T20:46:58.969Z,11.27
2019-04-30T20:49:29.130Z,11.32
2019-04-30T20:52:00.307Z,11.15
2019-04-30T20:54:30.117Z,11.20
2019-04-30T20:57:00.256Z,11.33
2019-04-30T20:59:30.455Z,11.14
2019-04-30T21:02:00.813Z,11.22
2019-04-30T21:04:31.522Z,11.12
2019-04-30T21:07:02.154Z,10.89
2019-04-30T21:09:32.411Z,10.85
2019-04-30T21:12:02.631Z,10.76
2019-04-30T21:14:33.366Z,10.64
2019-04-30T21:17:03.619Z,10.64
2019-04-30T21:19:33.531Z,10.61
2019-04-30T21:22:04.410Z,10.56
2019-04-30T21:24:35.153Z,10.62
2019-04-30T21:27:05.516Z,10.54
2019-04-30T21:29:39.144Z,10.62
2019-04-30T21:32:26.566Z,10.56
2019-04-30T21:35:08.125Z,10.66
2019-04-30T21:37:38.157Z,10.72
2019-04-30T21:40:09.727Z,10.73
2019-04-30T21:42:39.791Z,10.73
2019-04-30T21:45:10.101Z,10.54
2019-04-30T21:47:40.458Z,10.50
2019-04-30T21:50:10.269Z,10.42
2019-04-30T21:52:40.352Z,10.42
2019-04-30T21:55:13.073Z,10.44
2019-04-30T21:57:43.413Z,10.44
2019-04-30T22:00:15.936Z,10.28
2019-04-30T22:02:49.954Z,10.21
2019-04-30T22:05:19.066Z,10.21
2019-04-30T22:07:51.154Z,10.27
2019-04-30T22:10:21.212Z,10.27
2019-04-30T22:12:51.396Z,10.33
2019-04-30T22:15:21.706Z,10.32
2019-04-30T22:17:52.137Z,10.21
2019-04-30T22:20:25.420Z,10.19
2019-04-30T22:22:55.636Z,10.06
2019-04-30T22:25:25.995Z,10.06
2019-04-30T22:27:56.232Z,10.03
2019-04-30T22:30:26.039Z,10.05
2019-04-30T22:32:55.944Z,10.02
2019-04-30T22:35:51.214Z,9.91
2019-04-30T22:38:24.917Z,9.91
2019-04-30T22:40:54.758Z,9.95
2019-04-30T22:43:25.126Z,9.80
2019-04-30T22:45:59.674Z,9.83
2019-04-30T22:48:29.733Z,9.85
2019-04-30T22:51:00.229Z,9.92
2019-04-30T22:53:30.187Z,9.79
2019-04-30T22:56:00.241Z,9.79
2019-04-30T22:58:30.325Z,9.79
2019-04-30T23:01:21.893Z,9.76
2019-04-30T23:03:53.898Z,9.63
2019-04-30T23:06:24.140Z,9.64
2019-04-30T23:08:53.848Z,9.54
2019-04-30T23:11:23.777Z,9.53
2019-04-30T23:13:55.151Z,9.49
2019-04-30T23:16:29.263Z,9.54
2019-04-30T23:18:56.687Z,9.54
2019-04-30T23:21:27.310Z,9.53
2019-04-30T23:23:57.476Z,9.57
2019-04-30T23:26:28.006Z,9.50
2019-04-30T23:28:58.128Z,9.50
2019-04-30T23:31:27.960Z,9.52
2019-04-30T23:33:58.157Z,9.44
2019-04-30T23:36:28.556Z,9.30
2019-04-30T23:38:58.480Z,9.38
2019-04-30T23:41:28.358Z,9.38
2019-04-30T23:43:59.068Z,9.18
2019-04-30T23:46:29.141Z,9.18
2019-04-30T23:48:59.144Z,9.06
2019-04-30T23:51:28.894Z,9.18
2019-04-30T23:53:58.616Z,9.11
2019-04-30T23:56:28.694Z,9.25
2019-04-30T23:58:59.171Z,9.25
